createdAt,value
2023-01-29T00:04:30.010Z,12.30
2023-01-29T00:10:13.946Z,10.90
2023-01-29T00:15:43.350Z,10.70
2023-01-29T00:21:14.888Z,10.50
2023-01-29T00:26:52.547Z,10.80
2023-01-29T00:33:02.321Z,10.90
2023-01-29T00:38:54.317Z,9.90
2023-01-29T00:44:43.683Z,10.90
2023-01-29T00:50:54.272Z,9.10
2023-01-29T00:56:56.980Z,11.10
2023-01-29T01:03:28.423Z,10.90
2023-01-29T01:09:15.394Z,7.90
2023-01-29T01:15:04.677Z,8.80
2023-01-29T01:20:50.670Z,10.00
2023-01-29T01:26:14.797Z,8.00
2023-01-29T01:31:53.433Z,9.30
2023-01-29T01:37:59.518Z,9.50
2023-01-29T01:44:21.645Z,9.20
2023-01-29T01:50:21.268Z,7.80
2023-01-29T01:55:52.184Z,9.00
2023-01-29T02:01:19.201Z,8.40
2023-01-29T02:06:58.484Z,8.70
2023-01-29T02:12:55.881Z,9.20
2023-01-29T02:18:00.517Z,8.40
2023-01-29T02:24:45.075Z,8.30
2023-01-29T02:56:26.058Z,7.00
2023-01-29T03:01:57.331Z,7.80
2023-01-29T03:08:21.391Z,8.30
2023-01-29T03:14:13.449Z,7.70
2023-01-29T03:20:21.298Z,7.10
2023-01-29T03:26:06.584Z,8.30
2023-01-29T03:31:38.824Z,8.70
2023-01-29T03:38:03.130Z,10.90
2023-01-29T03:44:18.122Z,9.70
2023-01-29T03:50:23.484Z,7.30
2023-01-29T03:56:29.054Z,8.50
2023-01-29T04:02:07.492Z,7.50
2023-01-29T04:08:00.269Z,9.70
2023-01-29T04:13:27.814Z,8.30
2023-01-29T04:19:14.686Z,9.60
2023-01-29T04:24:32.606Z,9.60
2023-01-29T04:30:01.562Z,9.60
2023-01-29T04:36:36.521Z,8.80
2023-01-29T04:42:22.775Z,7.20
2023-01-29T04:48:28.272Z,8.00
2023-01-29T04:55:00.390Z,7.10
2023-01-29T05:01:19.736Z,9.80
2023-01-29T05:07:19.503Z,6.90
2023-01-29T05:12:58.830Z,7.40
2023-01-29T05:19:08.362Z,8.20
2023-01-29T05:24:31.561Z,10.80
2023-01-29T05:29:58.046Z,9.80
2023-01-29T05:35:41.760Z,11.50
2023-01-29T05:41:17.473Z,10.80
2023-01-29T05:46:46.249Z,10.90
2023-01-29T05:52:06.436Z,10.80
2023-01-29T05:57:54.301Z,11.40
2023-01-29T06:03:36.790Z,8.80
2023-01-29T06:09:13.352Z,8.00
2023-01-29T06:15:03.721Z,10.00
2023-01-29T06:21:10.573Z,10.20
2023-01-29T06:26:43.033Z,8.00
2023-01-29T06:32:07.831Z,8.80
2023-01-29T06:37:37.837Z,7.70
2023-01-29T06:42:51.806Z,8.50
2023-01-29T06:48:08.485Z,10.00
2023-01-29T06:53:40.301Z,11.80
2023-01-29T06:59:22.444Z,8.60
2023-01-29T07:04:47.567Z,10.40
2023-01-29T07:10:07.494Z,10.10
2023-01-29T07:15:23.390Z,8.40
2023-01-29T07:20:32.883Z,17.20
2023-01-29T07:25:42.808Z,11.10
2023-01-29T07:30:46.676Z,13.00
2023-01-29T07:36:18.388Z,11.20
2023-01-29T07:41:32.925Z,14.80
2023-01-29T07:46:54.752Z,12.00
2023-01-29T07:51:58.087Z,9.90
2023-01-29T07:57:24.420Z,11.80
2023-01-29T08:02:40.962Z,10.50
2023-01-29T08:08:06.622Z,12.70
2023-01-29T08:13:33.418Z,12.20
2023-01-29T08:18:47.904Z,11.20
2023-01-29T08:23:54.711Z,13.50
2023-01-29T08:29:22.724Z,13.00
2023-01-29T08:34:29.221Z,11.10
2023-01-29T08:39:49.813Z,11.50
2023-01-29T08:44:53.025Z,13.20
2023-01-29T08:50:30.494Z,13.20
2023-01-29T08:55:42.861Z,12.80
2023-01-29T09:00:46.068Z,13.20
2023-01-29T09:05:49.583Z,13.50
2023-01-29T09:10:52.959Z,12.60
2023-01-29T09:16:01.243Z,20.80
2023-01-29T09:21:05.080Z,17.00
2023-01-29T09:26:09.087Z,16.70
2023-01-29T09:31:12.115Z,10.80
2023-01-29T09:36:15.274Z,13.90
2023-01-29T09:41:56.927Z,16.20
2023-01-29T09:47:05.265Z,56.50
2023-01-29T09:52:18.645Z,116.30
2023-01-29T09:58:00.810Z,49.20
2023-01-29T10:03:51.543Z,31.40
2023-01-29T10:09:10.217Z,26.30
2023-01-29T10:14:40.554Z,23.00
2023-01-29T10:20:30.374Z,28.70
2023-01-29T10:25:43.072Z,25.80
2023-01-29T10:30:51.110Z,32.30
2023-01-29T10:36:03.356Z,19.20
2023-01-29T10:41:30.980Z,20.80
2023-01-29T10:46:54.075Z,16.90
2023-01-29T10:52:44.664Z,16.60
2023-01-29T10:58:03.060Z,15.40
2023-01-29T11:03:29.457Z,13.80
2023-01-29T11:09:23.807Z,13.10
2023-01-29T11:14:53.728Z,14.80
2023-01-29T11:19:57.050Z,15.10
2023-01-29T11:25:22.459Z,16.20
2023-01-29T11:30:41.559Z,13.30
2023-01-29T11:35:45.286Z,16.10
2023-01-29T11:40:48.819Z,16.80
2023-01-29T11:45:56.749Z,14.90
2023-01-29T11:51:01.449Z,15.40
2023-01-29T11:56:22.139Z,14.10
2023-01-29T12:01:45.914Z,43.60
2023-01-29T12:06:53.369Z,41.60
2023-01-29T12:12:42.436Z,23.40
2023-01-29T12:18:19.680Z,32.80
2023-01-29T12:24:27.029Z,24.50
2023-01-29T12:30:23.738Z,24.00
2023-01-29T12:35:36.169Z,21.90
2023-01-29T12:41:46.559Z,26.60
2023-01-29T12:47:00.803Z,24.70
2023-01-29T12:52:47.943Z,21.60
2023-01-29T12:58:22.641Z,20.70
2023-01-29T13:04:23.625Z,35.90
2023-01-29T13:09:36.843Z,25.40
2023-01-29T13:14:56.593Z,32.30
2023-01-29T13:20:30.312Z,29.20
2023-01-29T13:25:39.085Z,21.20
2023-01-29T13:30:42.359Z,19.60
2023-01-29T13:35:46.487Z,23.10
2023-01-29T13:40:51.410Z,21.60
2023-01-29T13:45:55.673Z,22.50
2023-01-29T13:51:17.824Z,19.90
2023-01-29T13:56:45.310Z,19.80
2023-01-29T14:02:02.961Z,17.00
2023-01-29T14:07:44.430Z,19.90
2023-01-29T14:12:50.550Z,19.90
2023-01-29T14:18:16.479Z,20.70
2023-01-29T14:23:49.381Z,19.60
2023-01-29T14:28:59.044Z,15.90
2023-01-29T14:34:07.378Z,20.10
2023-01-29T14:39:31.433Z,17.70
2023-01-29T14:44:48.570Z,18.00
2023-01-29T14:49:55.444Z,15.40
2023-01-29T14:55:07.084Z,14.50
2023-01-29T15:00:43.563Z,18.70
2023-01-29T15:05:48.853Z,27.70
2023-01-29T15:11:14.844Z,38.20
2023-01-29T15:17:08.853Z,50.70
2023-01-29T15:22:19.296Z,36.50
2023-01-29T15:27:22.717Z,29.90
2023-01-29T15:32:35.942Z,44.30
2023-01-29T15:37:40.196Z,34.60
2023-01-29T15:42:48.883Z,26.20
2023-01-29T15:48:08.906Z,29.90
2023-01-29T15:53:22.399Z,24.90
2023-01-29T15:58:32.345Z,25.70
2023-01-29T16:03:38.297Z,24.90
2023-01-29T16:08:50.972Z,29.00
2023-01-29T16:13:54.599Z,32.20
2023-01-29T16:19:01.607Z,29.30
2023-01-29T16:24:09.871Z,32.60
2023-01-29T16:29:33.435Z,22.40
2023-01-29T16:34:41.808Z,20.80
2023-01-29T16:39:52.505Z,22.20
2023-01-29T16:45:02.425Z,22.20
2023-01-29T16:50:27.453Z,16.60
2023-01-29T16:55:45.685Z,15.60
2023-01-29T17:01:08.336Z,20.60
2023-01-29T17:06:29.438Z,13.90
2023-01-29T17:11:38.893Z,17.90
2023-01-29T17:17:01.728Z,17.90
2023-01-29T17:22:07.767Z,19.20
2023-01-29T17:27:22.164Z,16.70
2023-01-29T17:32:44.643Z,16.20
2023-01-29T17:37:51.317Z,16.80
2023-01-29T17:42:54.434Z,19.60
2023-01-29T17:47:58.383Z,19.40
2023-01-29T17:53:11.608Z,14.40
2023-01-29T17:58:29.030Z,18.40
2023-01-29T18:03:34.959Z,21.10
2023-01-29T18:08:41.297Z,22.80
2023-01-29T18:13:56.593Z,16.70
2023-01-29T18:19:00.039Z,30.20
2023-01-29T18:24:12.082Z,31.80
2023-01-29T18:29:18.099Z,25.30
2023-01-29T18:34:21.424Z,21.90
2023-01-29T18:39:25.564Z,21.40
2023-01-29T18:44:29.961Z,23.90
2023-01-29T18:49:33.340Z,22.20
2023-01-29T18:54:59.777Z,22.10
2023-01-29T19:00:06.516Z,20.80
2023-01-29T19:05:10.255Z,17.60
2023-01-29T19:10:17.125Z,16.60
2023-01-29T19:15:23.290Z,16.70
2023-01-29T19:20:29.143Z,13.90
2023-01-29T19:25:32.345Z,13.40
2023-01-29T19:30:38.452Z,17.70
2023-01-29T19:35:47.321Z,18.10
2023-01-29T19:40:51.483Z,13.70
2023-01-29T19:45:59.643Z,24.40
2023-01-29T19:51:09.525Z,27.20
2023-01-29T19:56:18.768Z,14.90
2023-01-29T20:01:22.005Z,18.10
2023-01-29T20:06:31.168Z,17.30
2023-01-29T20:11:34.600Z,18.10
2023-01-29T20:16:38.638Z,20.80
2023-01-29T20:21:45.496Z,32.30
2023-01-29T20:26:59.118Z,21.30
2023-01-29T20:32:04.279Z,24.70
2023-01-29T20:37:28.234Z,18.90
2023-01-29T20:42:31.189Z,15.00
2023-01-29T20:47:45.037Z,12.20
2023-01-29T20:52:53.078Z,16.50
2023-01-29T20:58:05.664Z,15.50
2023-01-29T21:03:15.325Z,13.00
2023-01-29T21:08:41.796Z,15.70
2023-01-29T21:13:57.726Z,14.20
2023-01-29T21:19:05.745Z,15.60
2023-01-29T21:24:18.852Z,13.50
2023-01-29T21:29:30.336Z,18.20
2023-01-29T21:34:36.657Z,17.00
2023-01-29T21:39:53.745Z,17.60
2023-01-29T21:44:57.303Z,17.50
2023-01-29T21:50:20.785Z,15.20
2023-01-29T21:55:36.378Z,16.70
2023-01-29T22:00:42.155Z,16.00
2023-01-29T22:05:55.306Z,19.40
2023-01-29T22:10:58.802Z,16.70
2023-01-29T22:16:06.147Z,13.60
2023-01-29T22:21:12.663Z,15.40
2023-01-29T22:26:16.746Z,14.10
2023-01-29T22:31:29.223Z,15.90
2023-01-29T22:36:52.819Z,17.50
2023-01-29T22:41:56.092Z,16.50
2023-01-29T22:47:13.585Z,14.80
2023-01-29T22:52:38.765Z,16.00
2023-01-29T22:57:42.070Z,16.40
2023-01-29T23:02:56.245Z,16.40
2023-01-29T23:08:00.033Z,17.80
2023-01-29T23:13:08.263Z,15.00
2023-01-29T23:18:14.495Z,15.40
2023-01-29T23:23:19.967Z,13.40
2023-01-29T23:28:36.247Z,14.10
2023-01-29T23:33:42.381Z,14.30
2023-01-29T23:39:08.949Z,14.60
2023-01-29T23:44:12.405Z,15.40
2023-01-29T23:49:21.166Z,13.40
2023-01-29T23:54:24.785Z,12.60
2023-01-29T23:59:38.906Z,12.90
